KPOF/POF METAR and TAF weather

Enter ICAO airport designator
Station Type Date Time Source
KPOF METAR 2019/08/19 00:53 UTC NOAA

KPOF 190053Z AUTO 21003KT 10SM CLR 24/21 A2990 RMK AO2 RAE28 SLP119 P0001 T02390211


Station Type Date Time Source
KPOF Decoded METAR 2019/08/19 00:53 UTC NOAA

Station name not available
Aug 18, 2019 - 08:53 PM EDT / 2019.08.19 0053 UTC
Wind: from the SSW (210 degrees) at 3 MPH (3 KT):0
Visibility: 10 mile(s):0
Sky conditions: clear
Precipitation last hour: 0.01 inches
Temperature: 75.0 F (23.9 C)
Dew Point: 70.0 F (21.1 C)
Relative Humidity: 84%
Pressure (altimeter): 29.9 in. Hg (1012 hPa)
ob: KPOF 190053Z AUTO 21003KT 10SM CLR 24/21 A2990 RMK AO2 RAE28 SLP119 P0001 T02390211
cycle: 1

Station Type Date Time Source
KPOF TAF UTC NOAA

Error!

Example: see airport list